Hauptseite
METAR-TAF:

METAR-TAF

Flughäfen :

Adrar, Algerien

Breite: 27-53N, Länge: 000-17W, Höhe: 263 m

Beobachtung

Neuester Wetterbericht von vor 52 Minuten, um 10:00 UTC
Wind 15 kt aus Südost
Temperatur 24°C
Luftfeuchtigkeit 41%
Luftdruck 1011 hPa
Sichtweite: 8000 m

METAR: DAUA 181000Z 13015KT 8000 NSC 24/10 Q1011

Zeit: 11:52 (10:52 UTC)

Prognose

Neuester Wetterbericht von vor 5 Stunden und 52 Minuten, um 05:00 UTC
Gültige Prognose vom 18 um 06 UTC bis 19 um 06 UTC
Wind 8 kt aus Nordost
Sichtweite: 8000 m
Übergehend zu
vom 18 um 08 UTC bis 18 um 11 UTC
Wind 12 kt aus Süd
Wahrscheinlichkeit 30%
vom 18 um 12 UTC bis 18 um 15 UTC
Wind 20 kt aus Süd/Südwest
Sichtweite: 5000 m
Sandfegen

TAF: DAUA 180500Z 1806/1906 04008KT 8000 NSC BECMG 1808/1811 17012KT PROB30 1812/1815 20020KT 5000 DRSA

Wetterbeobachtungen und Prognosen von mehr als 4000 Flughäfen (METAR und TAF Bericht).

Die verfügbaren Stationen werden durch gelbe und rote Markierungen auf der Karte dargestellt.

Führen Sie die Maus auf sie, um den Namen der Station zu sehen.

Darauf klicken, um die Beobachtung von Wetterbeobachtungen und Prognosen zu sehen.

Um die Karte zu ändern : klicken Sie auf den grünen Tasten mit einem schwarzen Kreuz Zum Vergrößern, auf den grünen Button mit einem Gedankenstrich zu verkleinern, oder auf die grünen Pfeile für benachbarte Karten.


METAR-TAF: